Time;durP1;ratioP1;P1;durP2;ratioP2;P2;SDS_P1;SDS_P2;PMS_P1;PMS_P2;Temp;Humidity;BMP_temperature;BMP_pressure;BME280_temperature;BME280_humidity;BME280_pressure;Samples;Min_cycle;Max_cycle;Signal;HPM_P1;HPM_P2
2021/12/20 00:00:59;;;;;;;16.00;2.50;;;7.80;99.90;;;;;;5033127;28;20026;-77
2021/12/20 00:03:25;;;;;;;9.63;1.20;;;7.70;99.90;;;;;;5033101;28;20048;-77
2021/12/20 00:05:51;;;;;;;12.33;1.53;;;7.70;99.90;;;;;;5015280;28;20030;-77
2021/12/20 00:08:17;;;;;;;9.47;1.27;;;7.70;99.90;;;;;;5032991;28;20489;-76
2021/12/20 00:10:43;;;;;;;11.97;1.23;;;7.80;99.90;;;;;;5032942;28;20060;-76
2021/12/20 00:13:08;;;;;;;12.03;1.47;;;7.70;99.90;;;;;;5033027;28;20033;-76
2021/12/20 00:15:34;;;;;;;10.30;1.13;;;7.70;99.90;;;;;;5032895;28;20053;-76
2021/12/20 00:18:00;;;;;;;13.93;1.30;;;7.70;99.90;;;;;;4999168;28;20025;-76
2021/12/20 00:20:25;;;;;;;10.27;1.30;;;7.60;99.90;;;;;;5015199;28;20029;-76
2021/12/20 00:22:51;;;;;;;10.47;1.57;;;7.70;99.90;;;;;;5015422;28;20045;-76
2021/12/20 00:25:17;;;;;;;15.00;1.27;;;7.70;99.90;;;;;;5032882;28;20033;-76
2021/12/20 00:27:43;;;;;;;9.87;1.43;;;7.60;99.90;;;;;;5032861;28;20504;-76
2021/12/20 00:30:11;;;;;;;8.93;1.60;;;7.60;99.90;;;;;;5032579;28;20088;-76
2021/12/20 00:32:37;;;;;;;12.30;1.60;;;7.60;99.80;;;;;;4998760;28;20053;-76
2021/12/20 00:35:03;;;;;;;11.47;1.83;;;7.60;99.90;;;;;;5032820;28;20025;-77
2021/12/20 00:40:20;;;;;;;11.52;1.20;;;7.60;99.80;;;;;;5018244;28;20045;-78
2021/12/20 00:42:54;;;;;;;14.60;1.63;;;7.60;99.90;;;;;;5032913;28;20370;-77
2021/12/20 00:45:22;;;;;;;18.05;1.33;;;7.60;99.70;;;;;;5016391;28;20785;-77
2021/12/20 00:47:47;;;;;;;14.00;1.90;;;7.50;99.70;;;;;;5018870;28;20029;-77
2021/12/20 00:50:16;;;;;;;14.80;2.00;;;7.60;99.70;;;;;;5018976;28;20462;-77
2021/12/20 00:52:42;;;;;;;16.13;1.67;;;7.60;99.60;;;;;;5036585;28;20028;-77
2021/12/20 00:55:09;;;;;;;10.77;1.53;;;7.50;99.60;;;;;;5018616;28;20104;-77
2021/12/20 00:57:35;;;;;;;12.93;1.97;;;7.50;99.60;;;;;;5036465;28;20029;-77
2021/12/20 01:00:02;;;;;;;22.07;2.47;;;7.50;99.50;;;;;;5036408;28;20033;-77
2021/12/20 01:02:28;;;;;;;11.83;1.40;;;7.60;99.50;;;;;;5036340;28;20021;-77
2021/12/20 01:04:53;;;;;;;19.73;1.87;;;7.60;99.40;;;;;;5018700;28;20087;-77
2021/12/20 01:07:19;;;;;;;15.93;2.10;;;7.60;99.20;;;;;;5018509;28;20429;-77
2021/12/20 01:09:45;;;;;;;10.70;1.80;;;7.60;99.20;;;;;;5002254;28;20030;-77
2021/12/20 01:12:17;;;;;;;13.43;2.03;;;7.60;99.10;;;;;;5018579;28;20050;-77
2021/12/20 01:14:43;;;;;;;16.33;2.23;;;7.50;99.00;;;;;;5019582;28;20049;-77
2021/12/20 01:17:09;;;;;;;11.80;1.87;;;7.50;98.90;;;;;;5036097;28;20026;-77
2021/12/20 01:19:36;;;;;;;14.07;2.07;;;7.50;98.80;;;;;;5036068;28;20033;-77
2021/12/20 01:22:03;;;;;;;15.87;2.50;;;7.50;98.80;;;;;;5018462;28;20496;-78
2021/12/20 01:24:29;;;;;;;16.80;2.07;;;7.40;98.80;;;;;;5036020;28;20025;-77
2021/12/20 01:26:55;;;;;;;14.43;1.90;;;7.50;98.80;;;;;;5018094;28;20048;-77
2021/12/20 01:29:22;;;;;;;17.63;2.10;;;7.30;98.80;;;;;;5035717;28;20021;-77
2021/12/20 01:31:48;;;;;;;15.73;1.80;;;7.40;98.70;;;;;;5018192;28;20041;-77
2021/12/20 01:34:14;;;;;;;16.70;3.03;;;7.40;98.70;;;;;;5035846;28;20021;-77
2021/12/20 01:36:41;;;;;;;15.60;1.80;;;7.40;98.70;;;;;;5017978;28;20393;-77
2021/12/20 01:39:07;;;;;;;15.40;2.10;;;7.40;98.60;;;;;;5035642;28;20034;-77
2021/12/20 01:41:41;;;;;;;15.63;2.67;;;7.40;98.50;;;;;;5035759;28;20025;-77
2021/12/20 01:44:08;;;;;;;24.23;3.03;;;7.40;98.50;;;;;;5035618;28;20109;-77
2021/12/20 01:46:34;;;;;;;27.90;2.50;;;7.30;98.50;;;;;;5018069;28;20034;-77
2021/12/20 01:49:01;;;;;;;13.27;1.90;;;7.30;98.50;;;;;;5035422;28;20025;-78
2021/12/20 01:51:45;;;;;;;14.70;2.67;;;7.30;98.60;;;;;;5001545;28;20382;-78
2021/12/20 01:54:11;;;;;;;16.80;2.03;;;7.30;98.60;;;;;;5020410;28;20030;-77
2021/12/20 01:56:40;;;;;;;16.57;1.87;;;7.30;98.60;;;;;;5034709;28;20040;-77
2021/12/20 01:59:07;;;;;;;17.80;2.63;;;7.30;98.80;;;;;;5016794;28;20029;-78
2021/12/20 02:01:33;;;;;;;18.67;1.87;;;7.30;98.50;;;;;;5035169;28;20021;-77
2021/12/20 02:04:02;;;;;;;22.57;2.90;;;7.30;98.50;;;;;;5035336;28;20053;-77
2021/12/20 02:08:58;;;;;;;14.13;2.10;;;7.30;98.50;;;;;;5035355;28;20036;-72
2021/12/20 02:11:24;;;;;;;18.53;2.07;;;7.40;98.50;;;;;;5035124;28;20029;-72
2021/12/20 02:13:50;;;;;;;19.47;2.23;;;7.30;98.50;;;;;;5017263;28;20017;-72
2021/12/20 02:16:17;;;;;;;16.87;2.17;;;7.40;98.90;;;;;;5034807;28;20075;-72
2021/12/20 02:18:43;;;;;;;16.00;1.87;;;7.40;98.60;;;;;;5017235;28;20034;-77
2021/12/20 02:21:09;;;;;;;20.47;2.10;;;7.40;98.60;;;;;;5017360;28;20117;-72
2021/12/20 02:23:34;;;;;;;19.37;2.50;;;7.30;98.50;;;;;;5000805;28;20120;-77
2021/12/20 02:26:00;;;;;;;16.00;2.17;;;7.40;98.80;;;;;;5034864;28;20032;-77
2021/12/20 02:28:26;;;;;;;13.00;1.70;;;7.40;98.50;;;;;;5034728;28;20021;-78
2021/12/20 02:38:54;;;;;;;10.67;1.50;;;7.40;98.40;;;;;;5034923;28;20030;-77
2021/12/20 02:41:29;;;;;;;23.07;2.27;;;7.30;98.30;;;;;;5000398;28;20031;-77
2021/12/20 02:43:57;;;;;;;;;;;7.40;98.30;;;;;;5034953;28;20101;-77
2021/12/20 02:49:10;;;;;;;19.30;2.07;;;7.40;98.20;;;;;;5016551;28;20044;-72
2021/12/20 02:51:37;;;;;;;19.27;3.43;;;7.20;98.20;;;;;;5034413;28;20117;-72
2021/12/20 02:54:05;;;;;;;17.00;2.37;;;7.20;98.20;;;;;;5016718;28;20021;-72
2021/12/20 02:56:31;;;;;;;13.80;2.40;;;7.20;98.30;;;;;;5016408;28;20017;-73
2021/12/20 02:58:57;;;;;;;17.60;1.97;;;7.30;98.50;;;;;;5016658;28;20306;-72
2021/12/20 03:01:23;;;;;;;19.50;3.07;;;7.20;98.20;;;;;;5034196;28;20030;-72
2021/12/20 03:03:51;;;;;;;13.77;2.03;;;7.20;98.20;;;;;;5000217;28;20025;-72
2021/12/20 03:06:25;;;;;;;13.23;2.03;;;7.20;98.20;;;;;;5033908;28;20021;-72
2021/12/20 03:08:53;;;;;;;;;;;7.20;98.10;;;;;;5034012;28;20021;-72
2021/12/20 03:11:20;;;;;;;15.93;2.13;;;7.20;98.10;;;;;;5033984;28;19905;-77
2021/12/20 03:13:50;;;;;;;12.97;2.00;;;7.20;98.40;;;;;;5034102;28;20021;-77
2021/12/20 03:16:16;;;;;;;22.30;2.40;;;7.10;98.10;;;;;;5033872;28;20056;-77
2021/12/20 03:18:42;;;;;;;15.43;2.37;;;7.20;98.10;;;;;;5033858;28;20029;-78
2021/12/20 03:21:07;;;;;;;27.17;2.00;;;7.20;98.10;;;;;;4983541;28;20513;-77
2021/12/20 03:23:33;;;;;;;15.40;2.17;;;7.10;98.10;;;;;;5033760;28;20025;-77
2021/12/20 03:25:59;;;;;;;11.63;2.10;;;7.20;98.10;;;;;;5033708;28;20035;-78
2021/12/20 03:28:25;;;;;;;14.00;1.93;;;7.20;98.10;;;;;;5033633;28;20057;-77
2021/12/20 03:30:51;;;;;;;18.33;2.67;;;7.20;98.10;;;;;;5033259;28;20052;-77
2021/12/20 03:33:16;;;;;;;22.07;2.20;;;7.10;98.10;;;;;;5033443;28;20030;-77
2021/12/20 03:35:42;;;;;;;19.77;2.10;;;7.10;98.00;;;;;;5015827;28;20561;-77
2021/12/20 03:38:09;;;;;;;19.00;2.97;;;7.20;98.00;;;;;;5015799;28;20100;-77
2021/12/20 03:40:35;;;;;;;18.93;2.03;;;7.20;98.00;;;;;;5033518;28;20485;-78
2021/12/20 03:43:00;;;;;;;17.33;1.93;;;7.20;97.90;;;;;;5015869;28;20018;-77
2021/12/20 03:45:26;;;;;;;17.80;3.40;;;7.20;97.90;;;;;;5033286;28;20048;-77
2021/12/20 03:47:52;;;;;;;13.53;1.70;;;7.20;97.90;;;;;;5015410;28;20026;-77
2021/12/20 03:50:18;;;;;;;18.57;1.93;;;7.20;97.90;;;;;;4999469;28;20022;-77
2021/12/20 03:52:43;;;;;;;18.67;2.63;;;7.20;97.80;;;;;;5033360;28;20026;-77
2021/12/20 03:55:11;;;;;;;21.53;2.40;;;7.20;97.80;;;;;;5015470;28;20036;-77
2021/12/20 03:57:37;;;;;;;21.27;2.73;;;7.20;97.70;;;;;;5015515;28;20367;-77
2021/12/20 04:00:09;;;;;;;18.23;2.80;;;7.20;97.60;;;;;;5033151;28;20059;-77
2021/12/20 04:02:40;;;;;;;17.70;2.13;;;7.20;97.50;;;;;;5033047;28;20486;-77
2021/12/20 04:05:06;;;;;;;15.90;1.70;;;7.20;97.50;;;;;;4999902;28;20017;-77
2021/12/20 04:07:32;;;;;;;13.20;1.37;;;7.20;97.50;;;;;;5015305;28;20022;-77
2021/12/20 04:09:58;;;;;;;17.77;2.00;;;7.20;97.50;;;;;;5033095;28;20083;-72
2021/12/20 04:12:24;;;;;;;17.60;2.33;;;7.20;97.50;;;;;;5015297;28;20087;-72
2021/12/20 04:14:50;;;;;;;24.07;2.70;;;7.20;97.70;;;;;;5033048;28;20417;-72
2021/12/20 04:17:15;;;;;;;16.63;1.53;;;7.30;97.50;;;;;;5032964;28;20056;-72
2021/12/20 04:19:41;;;;;;;22.70;2.43;;;7.20;97.40;;;;;;5032942;28;20039;-72
2021/12/20 04:22:07;;;;;;;16.00;2.20;;;7.30;97.40;;;;;;5018240;28;20025;-72
2021/12/20 04:24:32;;;;;;;22.03;2.00;;;7.20;97.40;;;;;;5036952;28;20029;-72
2021/12/20 04:26:58;;;;;;;16.23;2.30;;;7.20;97.40;;;;;;5036697;28;20033;-72
2021/12/20 04:29:24;;;;;;;16.73;2.57;;;7.20;97.40;;;;;;5036679;28;20077;-72
2021/12/20 04:31:49;;;;;;;16.13;1.80;;;7.20;97.30;;;;;;5036696;28;20024;-72
2021/12/20 04:34:16;;;;;;;15.27;1.93;;;7.20;97.30;;;;;;5002934;28;20048;-73
2021/12/20 04:36:42;;;;;;;19.97;2.90;;;7.20;97.30;;;;;;5036946;28;20384;-72
2021/12/20 04:39:13;;;;;;;14.57;2.63;;;7.10;97.20;;;;;;5019254;28;20045;-72
2021/12/20 04:41:38;;;;;;;19.63;2.40;;;7.20;97.10;;;;;;5036968;28;20021;-72
2021/12/20 04:44:04;;;;;;;19.20;2.37;;;7.20;97.00;;;;;;5018905;28;20029;-72
2021/12/20 04:46:30;;;;;;;15.00;2.07;;;7.20;97.10;;;;;;5018922;28;20379;-72
2021/12/20 04:48:55;;;;;;;19.27;2.50;;;7.20;97.00;;;;;;5019077;28;20108;-72
2021/12/20 04:51:21;;;;;;;16.17;1.97;;;7.20;96.90;;;;;;5002661;28;20038;-72
2021/12/20 04:53:47;;;;;;;17.90;3.00;;;7.20;96.90;;;;;;5019074;28;20024;-72
2021/12/20 04:56:13;;;;;;;18.80;1.97;;;7.10;97.10;;;;;;5018788;28;20536;-72
2021/12/20 04:58:38;;;;;;;18.47;3.03;;;7.10;96.80;;;;;;5011653;28;20029;-72
2021/12/20 05:01:04;;;;;;;14.27;2.47;;;7.20;96.80;;;;;;5017104;28;20104;-72
2021/12/20 05:03:29;;;;;;;16.83;1.97;;;7.10;96.80;;;;;;5034862;28;20022;-72
2021/12/20 05:05:55;;;;;;;15.87;2.23;;;7.10;96.80;;;;;;5018166;28;20033;-72
2021/12/20 05:08:21;;;;;;;21.97;2.23;;;7.10;96.90;;;;;;5018746;28;20470;-72
2021/12/20 05:10:47;;;;;;;13.67;1.90;;;7.20;96.90;;;;;;5036054;28;20029;-72
2021/12/20 05:13:13;;;;;;;21.07;2.23;;;7.10;96.90;;;;;;5017792;28;20056;-71
2021/12/20 05:15:40;;;;;;;16.27;1.90;;;7.20;96.80;;;;;;5018254;28;20048;-71
2021/12/20 05:18:08;;;;;;;21.23;2.57;;;7.10;96.80;;;;;;5036093;28;20109;-71
2021/12/20 05:20:34;;;;;;;14.23;1.73;;;7.10;96.80;;;;;;5018295;28;20393;-71
2021/12/20 05:23:02;;;;;;;18.90;2.20;;;7.10;96.80;;;;;;5018177;28;20033;-77
2021/12/20 05:25:28;;;;;;;14.97;1.90;;;7.10;96.90;;;;;;5002083;28;20021;-77
2021/12/20 05:27:54;;;;;;;15.27;2.43;;;7.10;96.90;;;;;;5035842;28;20049;-77
2021/12/20 05:30:20;;;;;;;14.17;2.53;;;7.10;97.00;;;;;;5035648;28;20081;-71
2021/12/20 05:32:46;;;;;;;14.70;2.33;;;7.00;96.90;;;;;;5018014;28;20486;-77
2021/12/20 05:35:13;;;;;;;15.20;1.77;;;7.10;96.90;;;;;;5001718;28;20022;-77
2021/12/20 05:37:40;;;;;;;14.13;1.93;;;7.10;96.90;;;;;;5035789;28;20072;-77
2021/12/20 05:40:09;;;;;;;19.90;1.87;;;7.10;96.80;;;;;;5035769;28;20041;-77
2021/12/20 05:42:35;;;;;;;14.37;1.73;;;7.10;96.80;;;;;;5035360;28;20072;-77
2021/12/20 05:45:00;;;;;;;19.83;2.13;;;7.10;96.70;;;;;;5017872;28;20030;-78
2021/12/20 05:47:26;;;;;;;13.83;2.13;;;7.10;96.70;;;;;;5017653;28;20381;-77
2021/12/20 05:49:53;;;;;;;15.20;1.60;;;7.10;97.00;;;;;;5017649;28;20021;-77
2021/12/20 05:52:18;;;;;;;14.40;2.03;;;7.10;96.70;;;;;;5035454;28;20028;-77
2021/12/20 05:54:44;;;;;;;16.63;2.20;;;7.00;96.60;;;;;;5001115;28;20022;-77
2021/12/20 05:57:10;;;;;;;14.10;1.40;;;7.00;96.70;;;;;;5035175;28;20549;-77
2021/12/20 05:59:36;;;;;;;17.43;2.00;;;7.00;96.70;;;;;;5035456;28;20060;-77
2021/12/20 06:02:02;;;;;;;16.30;1.73;;;6.90;96.70;;;;;;5035289;28;20029;-78
2021/12/20 06:04:28;;;;;;;17.63;1.60;;;6.90;96.70;;;;;;5035277;28;20025;-77
2021/12/20 06:06:53;;;;;;;15.40;1.73;;;6.90;96.70;;;;;;5014146;28;20029;-76
2021/12/20 06:09:19;;;;;;;16.17;2.60;;;6.90;96.70;;;;;;5023820;28;20018;-76
2021/12/20 06:11:44;;;;;;;14.13;2.40;;;6.90;96.70;;;;;;5023395;28;20038;-76
2021/12/20 06:14:10;;;;;;;13.63;2.23;;;7.00;96.80;;;;;;5015358;28;20037;-77
2021/12/20 06:16:36;;;;;;;14.40;2.27;;;6.90;96.80;;;;;;4998076;28;20502;-76
2021/12/20 06:19:03;;;;;;;13.47;1.37;;;6.90;96.80;;;;;;5019168;28;20034;-76
2021/12/20 06:21:28;;;;;;;18.67;2.93;;;6.90;96.70;;;;;;5034980;28;20029;-76
2021/12/20 06:23:54;;;;;;;11.67;2.07;;;6.90;96.70;;;;;;4998229;28;20129;-76
2021/12/20 06:26:23;;;;;;;16.03;1.73;;;6.90;96.60;;;;;;5023603;28;20022;-76
2021/12/20 06:28:50;;;;;;;16.80;2.13;;;6.80;96.60;;;;;;5016252;28;20030;-77
2021/12/20 06:31:16;;;;;;;18.37;2.60;;;6.80;96.50;;;;;;5024504;28;20050;-76
2021/12/20 06:33:41;;;;;;;13.20;1.83;;;6.80;96.80;;;;;;5015014;28;20036;-77
2021/12/20 06:36:07;;;;;;;14.50;2.40;;;6.80;96.50;;;;;;5026350;28;20552;-76
2021/12/20 06:38:34;;;;;;;11.73;2.20;;;6.90;96.50;;;;;;5013489;28;20065;-76
2021/12/20 06:41:00;;;;;;;16.83;2.23;;;6.80;96.50;;;;;;5013667;28;20025;-76
2021/12/20 06:43:26;;;;;;;11.63;1.60;;;6.80;96.50;;;;;;4996494;28;20030;-76
2021/12/20 06:45:52;;;;;;;11.67;2.17;;;6.80;96.50;;;;;;4997412;28;20058;-76
2021/12/20 06:48:17;;;;;;;17.97;2.90;;;6.80;96.50;;;;;;5017406;28;20386;-76
2021/12/20 06:50:43;;;;;;;13.90;1.57;;;6.80;96.50;;;;;;5014806;28;20026;-77
2021/12/20 06:53:09;;;;;;;17.80;1.80;;;6.80;96.50;;;;;;4997166;28;20475;-77
2021/12/20 06:55:36;;;;;;;13.70;2.00;;;6.70;96.40;;;;;;5026151;28;20029;-77
2021/12/20 06:58:03;;;;;;;12.30;1.50;;;6.80;96.50;;;;;;5016537;28;20390;-77
2021/12/20 07:00:29;;;;;;;13.20;1.57;;;6.80;96.50;;;;;;5034262;28;20517;-77
2021/12/20 07:02:55;;;;;;;16.50;1.60;;;6.80;96.40;;;;;;5034211;28;20030;-77
2021/12/20 07:05:21;;;;;;;18.70;1.87;;;6.70;96.40;;;;;;5034209;28;20057;-77
2021/12/20 07:07:47;;;;;;;14.77;1.80;;;6.70;96.40;;;;;;5034027;28;20091;-77
2021/12/20 07:10:12;;;;;;;13.90;1.23;;;6.80;96.40;;;;;;5016319;28;20026;-77
2021/12/20 07:12:38;;;;;;;13.40;1.83;;;6.70;96.40;;;;;;5033775;28;20068;-72
2021/12/20 07:15:06;;;;;;;16.07;2.13;;;6.70;96.40;;;;;;4999155;28;20120;-71
2021/12/20 07:17:32;;;;;;;7.20;1.10;;;6.80;96.50;;;;;;5015938;28;20079;-72
2021/12/20 07:20:00;;;;;;;9.53;1.40;;;6.70;96.40;;;;;;5033649;28;20474;-72
2021/12/20 07:22:26;;;;;;;20.10;3.50;;;6.70;96.40;;;;;;5016168;28;20056;-72
2021/12/20 07:24:51;;;;;;;8.67;2.10;;;6.80;96.40;;;;;;5033562;28;20454;-72
2021/12/20 07:27:20;;;;;;;12.70;1.57;;;6.80;96.30;;;;;;5033332;28;20034;-72
2021/12/20 07:29:46;;;;;;;15.00;1.77;;;6.80;96.30;;;;;;5033173;28;20041;-72
2021/12/20 07:32:12;;;;;;;8.90;1.33;;;6.80;96.20;;;;;;5033466;28;20022;-72
2021/12/20 07:34:38;;;;;;;12.47;1.50;;;6.60;96.10;;;;;;5016018;28;20104;-72
2021/12/20 07:37:05;;;;;;;12.70;1.40;;;6.80;96.00;;;;;;5033336;28;20029;-72
2021/12/20 07:39:31;;;;;;;11.00;1.20;;;6.90;96.00;;;;;;5033401;28;20030;-72
2021/12/20 07:41:57;;;;;;;9.53;1.80;;;6.70;96.20;;;;;;5033572;28;20108;-72
2021/12/20 07:44:23;;;;;;;8.03;0.77;;;6.80;95.90;;;;;;5033430;28;20125;-72
2021/12/20 07:46:49;;;;;;;9.53;0.87;;;6.80;95.90;;;;;;5033285;28;20492;-72
2021/12/20 07:49:15;;;;;;;11.37;1.53;;;6.80;95.90;;;;;;5033232;28;20025;-72
2021/12/20 07:51:40;;;;;;;11.97;1.40;;;6.80;95.90;;;;;;5015663;28;20359;-71
2021/12/20 07:54:06;;;;;;;14.47;1.57;;;6.80;95.90;;;;;;5015812;28;20032;-72
2021/12/20 07:56:32;;;;;;;17.70;3.00;;;6.80;95.80;;;;;;4998921;28;20030;-72
2021/12/20 07:58:57;;;;;;;13.73;1.43;;;6.80;95.80;;;;;;5015705;28;20136;-72
2021/12/20 08:01:23;;;;;;;7.10;1.00;;;6.80;95.80;;;;;;5015751;28;20029;-72
2021/12/20 08:03:49;;;;;;;9.50;1.13;;;6.80;95.90;;;;;;5033159;28;20095;-72
2021/12/20 08:06:15;;;;;;;11.60;1.10;;;6.80;95.90;;;;;;5015558;28;20033;-72
2021/12/20 08:08:41;;;;;;;13.37;1.63;;;6.80;95.80;;;;;;5033032;28;20028;-72
2021/12/20 08:11:07;;;;;;;12.40;1.60;;;6.80;95.80;;;;;;5032917;28;20032;-72
2021/12/20 08:13:33;;;;;;;12.73;1.90;;;6.80;95.80;;;;;;5015249;28;20029;-72
2021/12/20 08:15:58;;;;;;;8.43;1.30;;;6.80;95.80;;;;;;5027096;28;20030;-72
2021/12/20 08:18:24;;;;;;;11.97;1.57;;;6.80;95.70;;;;;;5003903;28;20489;-72
2021/12/20 08:20:51;;;;;;;12.20;2.00;;;6.80;95.70;;;;;;5005783;28;20029;-72
2021/12/20 08:23:17;;;;;;;15.17;1.73;;;6.80;95.70;;;;;;5022738;28;20109;-72
2021/12/20 08:25:43;;;;;;;13.60;1.67;;;6.80;95.80;;;;;;5004086;28;20033;-72
2021/12/20 08:28:09;;;;;;;6.83;1.27;;;6.80;95.80;;;;;;5023631;28;20424;-72
2021/12/20 08:30:36;;;;;;;8.47;1.20;;;6.80;95.80;;;;;;5022355;28;20054;-72
2021/12/20 08:33:02;;;;;;;13.80;1.77;;;6.80;95.80;;;;;;5015770;28;20475;-71
2021/12/20 08:35:27;;;;;;;13.07;1.10;;;7.00;95.80;;;;;;5013062;28;20110;-72
2021/12/20 08:37:53;;;;;;;15.13;2.20;;;6.80;95.70;;;;;;4979000;28;20029;-71
2021/12/20 08:40:21;;;;;;;10.67;1.30;;;6.90;95.80;;;;;;4995421;28;20022;-71
2021/12/20 08:42:47;;;;;;;14.57;1.67;;;6.90;95.70;;;;;;5013362;28;20065;-72
2021/12/20 08:45:14;;;;;;;16.17;2.07;;;6.90;95.70;;;;;;4995405;28;20061;-73
2021/12/20 08:47:40;;;;;;;13.33;1.47;;;6.90;95.70;;;;;;5013119;28;20032;-73
2021/12/20 08:50:10;;;;;;;15.27;2.60;;;6.90;95.60;;;;;;4995480;28;20089;-73
2021/12/20 08:52:36;;;;;;;15.27;2.10;;;7.00;95.70;;;;;;5013003;28;20048;-73
2021/12/20 08:55:02;;;;;;;13.33;1.87;;;7.00;95.70;;;;;;4995586;28;20029;-73
2021/12/20 08:57:28;;;;;;;9.57;1.50;;;7.00;95.60;;;;;;5012857;28;20065;-73
2021/12/20 08:59:54;;;;;;;10.33;1.50;;;7.00;95.60;;;;;;4995414;28;20058;-73
2021/12/20 09:02:19;;;;;;;11.03;1.50;;;7.00;95.60;;;;;;5012991;28;20084;-73
2021/12/20 09:04:45;;;;;;;11.03;1.83;;;7.10;95.70;;;;;;4995468;28;20389;-73
2021/12/20 09:07:15;;;;;;;13.20;1.60;;;7.10;95.70;;;;;;4996968;28;20034;-73
2021/12/20 09:09:44;;;;;;;13.63;2.30;;;7.10;95.70;;;;;;4998916;28;20022;-73
2021/12/20 09:12:10;;;;;;;17.03;2.40;;;7.10;95.80;;;;;;5016663;28;20026;-73
2021/12/20 09:14:37;;;;;;;18.77;2.43;;;7.20;95.70;;;;;;5027930;28;20596;-73
2021/12/20 09:17:03;;;;;;;16.13;2.17;;;7.20;95.60;;;;;;5002222;28;20033;-73
2021/12/20 09:19:29;;;;;;;8.80;1.70;;;7.30;95.60;;;;;;5018401;28;20037;-72
2021/12/20 09:21:55;;;;;;;11.70;2.00;;;7.20;95.50;;;;;;5018286;28;20551;-74
2021/12/20 09:24:21;;;;;;;8.83;1.27;;;7.30;95.50;;;;;;5036058;28;20485;-73
2021/12/20 09:26:47;;;;;;;15.33;2.47;;;7.40;95.50;;;;;;5036032;28;20030;-74
2021/12/20 09:29:12;;;;;;;10.40;1.63;;;7.30;95.40;;;;;;5017929;28;20024;-74
2021/12/20 09:31:39;;;;;;;10.73;1.97;;;7.30;95.40;;;;;;5018247;28;20040;-73
2021/12/20 09:34:05;;;;;;;8.93;1.37;;;7.50;95.50;;;;;;5002020;28;20029;-73
2021/12/20 09:36:33;;;;;;;9.03;1.43;;;7.50;95.50;;;;;;5035858;28;20025;-74
2021/12/20 09:39:00;;;;;;;16.90;1.50;;;7.60;95.40;;;;;;5035681;28;20024;-74
2021/12/20 09:44:06;;;;;;;9.53;1.70;;;7.90;95.60;;;;;;5024615;28;20037;-74
2021/12/20 09:46:32;;;;;;;7.90;1.50;;;8.00;95.60;;;;;;5020072;28;20084;-74
2021/12/20 09:48:58;;;;;;;12.23;1.50;;;8.00;95.70;;;;;;5012163;28;20021;-74
2021/12/20 09:51:24;;;;;;;10.23;2.20;;;8.30;95.80;;;;;;5024178;28;20029;-74
2021/12/20 09:53:50;;;;;;;7.00;1.07;;;8.50;95.80;;;;;;5031163;28;20037;-72
2021/12/20 09:56:18;;;;;;;7.07;1.20;;;8.70;96.10;;;;;;5014156;28;20108;-74
2021/12/20 09:58:47;;;;;;;8.20;1.70;;;8.90;96.30;;;;;;5014043;28;20371;-75
2021/12/20 10:01:13;;;;;;;10.82;1.55;;;9.40;96.60;;;;;;5023508;28;20439;-76
2021/12/20 10:03:42;;;;;;;9.07;1.30;;;9.70;96.40;;;;;;5020268;28;20112;-74
2021/12/20 10:06:08;;;;;;;10.60;1.00;;;9.90;96.20;;;;;;5022453;28;20537;-75
2021/12/20 10:08:35;;;;;;;8.82;1.13;;;10.10;95.90;;;;;;5041147;28;20022;-75
2021/12/20 10:11:16;;;;;;;16.05;1.58;;;10.20;95.70;;;;;;5035472;28;20055;-75
2021/12/20 10:13:42;;;;;;;7.82;1.17;;;10.60;95.90;;;;;;5013529;28;20458;-75
2021/12/20 10:16:20;;;;;;;9.25;1.75;;;11.20;96.40;;;;;;5014126;28;20026;-75
2021/12/20 10:18:46;;;;;;;8.82;1.60;;;11.70;95.80;;;;;;5013475;28;20041;-75
2021/12/20 10:21:12;;;;;;;7.95;1.20;;;12.20;95.90;;;;;;5014978;28;20022;-75
2021/12/20 10:23:47;;;;;;;9.43;1.58;;;12.70;95.60;;;;;;5014993;28;20026;-76
2021/12/20 10:26:21;;;;;;;9.38;1.75;;;13.30;94.80;;;;;;4997482;28;20112;-77
2021/12/20 10:28:49;;;;;;;11.57;1.80;;;13.80;93.90;;;;;;5014387;28;20022;-76
2021/12/20 10:31:21;;;;;;;11.85;1.40;;;14.10;93.10;;;;;;4980463;28;20072;-76
2021/12/20 10:33:54;;;;;;;10.25;1.58;;;14.30;92.20;;;;;;5014960;28;20030;-77
2021/12/20 10:36:20;;;;;;;10.15;1.88;;;14.50;90.70;;;;;;4997599;28;20025;-77
2021/12/20 10:38:56;;;;;;;11.15;1.90;;;14.60;89.90;;;;;;4980911;28;20029;-77
2021/12/20 10:41:32;;;;;;;12.18;1.95;;;14.70;88.20;;;;;;4997430;28;20018;-77
2021/12/20 10:44:01;;;;;;;12.32;2.15;;;14.70;86.30;;;;;;5014768;28;20033;-77
2021/12/20 10:46:31;;;;;;;10.80;2.00;;;14.80;84.90;;;;;;4996933;28;20030;-77
2021/12/20 10:49:02;;;;;;;13.00;2.03;;;14.90;83.00;;;;;;5014651;28;20474;-77
2021/12/20 10:51:32;;;;;;;11.05;2.15;;;15.00;81.90;;;;;;5014578;28;20018;-77
2021/12/20 10:54:02;;;;;;;11.13;2.30;;;15.20;81.40;;;;;;5014650;28;20029;-77
2021/12/20 10:56:37;;;;;;;11.13;2.25;;;15.50;80.60;;;;;;5014552;28;20022;-77
2021/12/20 10:59:09;;;;;;;13.25;1.80;;;16.00;79.50;;;;;;4997040;28;20478;-75
2021/12/20 11:02:33;;;;;;;11.23;2.33;;;16.40;78.80;;;;;;4996843;28;20030;-75
2021/12/20 11:04:47;;;;;;;12.10;1.73;;;16.70;77.20;;;;;;5014122;28;20061;-75
2021/12/20 11:09:50;;;;;;;17.42;2.83;;;17.20;74.70;;;;;;5014298;28;20046;-75
2021/12/20 11:12:24;;;;;;;11.43;2.30;;;17.30;74.10;;;;;;5014226;28;20030;-76
2021/12/20 11:14:55;;;;;;;8.30;1.83;;;17.40;72.60;;;;;;4996237;28;20083;-75
2021/12/20 11:17:21;;;;;;;11.48;2.08;;;17.50;71.70;;;;;;5013924;28;20116;-76
2021/12/20 11:19:52;;;;;;;11.85;2.45;;;17.50;70.80;;;;;;4996606;28;20034;-76
2021/12/20 11:22:20;;;;;;;14.32;2.10;;;17.50;69.50;;;;;;5013941;28;20033;-75
2021/12/20 11:25:14;;;;;;;14.80;2.20;;;17.50;69.00;;;;;;5014085;28;20597;-75
2021/12/20 11:27:43;;;;;;;12.45;2.20;;;17.50;67.20;;;;;;4994652;28;20517;-75
2021/12/20 11:30:17;;;;;;;12.07;2.17;;;17.50;67.70;;;;;;4995779;28;20394;-74
2021/12/20 11:32:44;;;;;;;14.90;2.63;;;17.60;66.60;;;;;;5013395;28;20026;-77
2021/12/20 11:35:10;;;;;;;14.40;2.47;;;17.50;65.60;;;;;;5013831;28;20018;-75
2021/12/20 11:37:36;;;;;;;11.18;2.53;;;17.50;63.90;;;;;;5013542;28;20505;-75
2021/12/20 11:40:06;;;;;;;14.95;2.50;;;17.50;62.60;;;;;;4996327;28;20483;-74
2021/12/20 11:42:31;;;;;;;11.43;2.25;;;17.50;61.00;;;;;;5013818;28;20479;-75
2021/12/20 11:45:02;;;;;;;12.25;2.33;;;17.50;61.70;;;;;;5013452;28;20108;-74
2021/12/20 11:47:50;;;;;;;14.77;2.38;;;17.40;61.60;;;;;;5018553;28;20053;-74
2021/12/20 11:50:19;;;;;;;9.50;2.45;;;17.40;61.10;;;;;;5018556;28;20037;-73
2021/12/20 11:52:47;;;;;;;14.75;2.55;;;17.70;61.50;;;;;;5023894;28;20037;-73
2021/12/20 11:55:25;;;;;;;14.55;2.83;;;18.00;61.20;;;;;;5032434;28;20098;-73
2021/12/20 11:57:57;;;;;;;13.38;2.47;;;18.30;60.50;;;;;;5014011;28;20433;-73
2021/12/20 12:00:38;;;;;;;10.85;2.40;;;18.50;60.50;;;;;;5027570;28;20382;-75
2021/12/20 12:03:05;;;;;;;14.10;2.63;;;18.60;59.70;;;;;;4979435;28;20375;-75
2021/12/20 12:05:55;;;;;;;19.33;2.85;;;18.60;59.50;;;;;;5013046;28;20062;-74
2021/12/20 12:08:23;;;;;;;10.13;1.83;;;18.60;59.10;;;;;;5013266;28;20524;-74
2021/12/20 12:10:51;;;;;;;11.20;2.42;;;18.80;59.00;;;;;;4995781;28;20447;-76
2021/12/20 12:13:18;;;;;;;12.60;2.13;;;19.10;58.00;;;;;;5013309;28;20398;-75
2021/12/20 12:16:05;;;;;;;9.98;2.20;;;19.60;57.50;;;;;;4995145;28;20378;-76
2021/12/20 12:18:45;;;;;;;12.77;2.53;;;19.90;55.60;;;;;;4979629;28;20505;-76
2021/12/20 12:21:39;;;;;;;11.50;1.88;;;20.50;53.90;;;;;;5013230;28;20520;-76
2021/12/20 12:24:09;;;;;;;13.32;2.35;;;20.90;53.00;;;;;;4995260;28;20132;-75
2021/12/20 12:26:41;;;;;;;10.80;2.35;;;21.20;53.80;;;;;;5012858;28;20041;-76
2021/12/20 12:29:18;;;;;;;10.38;2.42;;;21.40;52.80;;;;;;5013411;28;20437;-76
2021/12/20 12:31:57;;;;;;;10.40;2.33;;;21.60;51.80;;;;;;5029579;28;20144;-75
2021/12/20 12:34:36;;;;;;;13.85;2.20;;;22.00;51.40;;;;;;5031708;28;20025;-75
2021/12/20 12:37:33;;;;;;;11.88;2.38;;;22.20;50.80;;;;;;5015032;28;20029;-74
2021/12/20 12:40:24;;;;;;;14.38;2.28;;;22.50;49.30;;;;;;5015019;28;20389;-74
2021/12/20 12:42:54;;;;;;;11.23;2.60;;;22.80;48.40;;;;;;5011285;28;20029;-77
2021/12/20 12:45:53;;;;;;;7.40;1.60;;;23.00;49.10;;;;;;5018542;28;20034;-76
2021/12/20 12:48:38;;;;;;;8.82;2.03;;;23.20;47.30;;;;;;5036293;28;20098;-76
2021/12/20 12:51:19;;;;;;;11.52;2.28;;;23.50;47.00;;;;;;5018725;28;20469;-76
2021/12/20 12:53:48;;;;;;;10.00;2.15;;;23.70;46.20;;;;;;5018556;28;20022;-76
2021/12/20 12:56:29;;;;;;;10.48;2.35;;;23.90;46.50;;;;;;5009600;28;20112;-76
2021/12/20 12:59:16;;;;;;;10.57;2.30;;;24.00;44.90;;;;;;5027763;28;20013;-76
2021/12/20 13:01:58;;;;;;;12.98;2.95;;;24.10;44.80;;;;;;5034730;28;20048;-76
2021/12/20 13:04:47;;;;;;;13.02;2.42;;;24.30;45.20;;;;;;5001596;28;20116;-77
2021/12/20 13:07:25;;;;;;;12.20;2.50;;;24.50;44.40;;;;;;5014576;28;20072;-77
2021/12/20 13:09:54;;;;;;;9.27;2.30;;;24.60;44.00;;;;;;5016390;28;20060;-77
2021/12/20 13:12:57;;;;;;;10.40;2.28;;;24.70;44.10;;;;;;5015529;28;20474;-77